Current Weather

Phoenix Goodyear

Goodyear, Arizona (KGYR)

Report from: Sunday, June 26, 2022 8:47 AM MST
Current time: Sunday, June 26, 2022 9:43 AM MST

Nearby weather
Weather history
Weather forecast

Temperature34.0°C (93.2°F)
Heat index33.3°C (91.9°F)
Dew point14.0°C (57.2°F)
Winds Calm
Visibility10 mi. (16.1 km)
Clouds Scattered clouds 15,000 ft. (4,572 m)
Altimeter29.99 in.Hg (1016 mB)
Relative humidity30 %
Density altitude2,306 ft. (703 m)
Flight conditions Visual Meteorological Conditions
Raw dataKGYR 261547Z 00000KT 10SM SCT150 34/14 A2999
An error has occurred. This application may no longer respond until reloaded. Reload 🗙